Time;durP1;ratioP1;P1;durP2;ratioP2;P2;SDS_P1;SDS_P2;PMS_P1;PMS_P2;Temp;Humidity;BMP_temperature;BMP_pressure;BME280_temperature;BME280_humidity;BME280_pressure;Samples;Min_cycle;Max_cycle;Signal;HPM_P1;HPM_P2
2022/11/09 16:17:09;;;;;;;46.50;25.97;;;;;;;12.28;78.86;98994.09;1795863;80;22891;-44
2022/11/09 16:19:35;;;;;;;50.05;26.40;;;;;;;12.14;78.64;99002.08;1794028;80;21079;-42
2022/11/09 16:22:01;;;;;;;42.38;26.20;;;;;;;12.09;78.62;99002.36;1792472;80;21035;-42
2022/11/09 16:24:29;;;;;;;52.03;26.80;;;;;;;11.95;78.93;98997.19;1792999;79;21098;-43
2022/11/09 16:26:54;;;;;;;63.33;28.98;;;;;;;11.89;78.93;98999.69;1794295;80;21003;-43
2022/11/09 16:29:25;;;;;;;59.35;28.47;;;;;;;11.82;78.76;99002.35;1794025;80;21066;-48
2022/11/09 16:31:51;;;;;;;49.75;27.45;;;;;;;11.73;79.45;98995.05;1793301;80;20984;-43
2022/11/09 16:34:17;;;;;;;57.95;29.95;;;;;;;11.66;79.33;98994.62;1794345;80;21015;-41
2022/11/09 16:36:43;;;;;;;50.28;29.20;;;;;;;11.57;79.88;98996.53;1794094;80;20960;-40
2022/11/09 16:39:15;;;;;;;54.53;28.27;;;;;;;11.51;80.16;98985.05;1793651;80;21047;-43
2022/11/09 16:41:43;;;;;;;59.33;30.30;;;;;;;11.46;80.05;98977.91;1793846;80;21032;-43
2022/11/09 16:44:11;;;;;;;61.45;30.02;;;;;;;11.40;80.45;98983.11;1793456;80;21027;-41
2022/11/09 16:46:42;;;;;;;60.45;27.98;;;;;;;11.37;80.38;98987.72;1792642;80;21031;-41
2022/11/09 16:49:07;;;;;;;64.50;29.35;;;;;;;11.32;80.50;98985.39;1792470;80;21020;-41
2022/11/09 16:51:33;;;;;;;51.25;26.65;;;;;;;11.26;81.19;98992.34;1792834;80;21024;-42
2022/11/09 16:53:59;;;;;;;48.85;27.60;;;;;;;11.25;80.68;98992.82;1792798;80;21038;-40
2022/11/09 16:56:25;;;;;;;57.20;27.32;;;;;;;11.19;81.28;98984.01;1792844;80;21011;-41
2022/11/09 16:58:53;;;;;;;57.30;28.20;;;;;;;11.10;81.27;98980.64;1794079;79;21062;-42
2022/11/09 17:01:20;;;;;;;;;;;;;;;11.11;81.08;98976.59;1796763;80;21043;-42
2022/11/09 17:03:47;;;;;;;58.60;28.38;;;;;;;11.05;81.59;98987.48;1794108;80;20104;-41
2022/11/09 17:06:13;;;;;;;63.52;29.57;;;;;;;11.02;81.73;98979.77;1794081;80;21007;-42
2022/11/09 17:08:40;;;;;;;57.70;29.02;;;;;;;10.99;81.91;98976.48;1794094;80;20991;-40
2022/11/09 17:11:13;;;;;;;60.38;29.20;;;;;;;10.98;81.61;98976.12;1794259;80;20999;-41
2022/11/09 17:13:40;;;;;;;57.73;30.15;;;;;;;10.97;81.48;98977.92;1794278;80;20999;-41
2022/11/09 17:16:09;;;;;;;58.78;30.85;;;;;;;10.98;81.62;98983.55;1791894;80;21524;-41
2022/11/09 17:18:38;;;;;;;64.27;32.93;;;;;;;10.99;81.52;98980.44;1788221;80;21551;-42
2022/11/09 17:21:13;;;;;;;80.50;36.23;;;;;;;10.97;82.03;98985.81;1788040;80;21722;-43
2022/11/09 17:23:41;;;;;;;64.45;33.33;;;;;;;10.96;81.68;98982.80;1789268;80;20952;-42
2022/11/09 17:26:08;;;;;;;58.85;31.80;;;;;;;10.94;82.44;98983.37;1788954;80;21501;-46
2022/11/09 17:28:35;;;;;;;59.48;32.70;;;;;;;10.92;82.47;98977.36;1788693;80;21614;-42
2022/11/09 17:31:15;;;;;;;63.78;31.30;;;;;;;10.93;82.68;98993.50;1789468;80;20984;-41
2022/11/09 17:33:41;;;;;;;70.80;32.53;;;;;;;10.87;83.25;98992.58;1787991;80;21019;-47
2022/11/09 17:36:12;;;;;;;91.50;38.35;;;;;;;10.87;82.92;98996.52;1788429;80;20976;-41
2022/11/09 17:38:39;;;;;;;70.25;32.60;;;;;;;10.86;82.54;98989.55;1789105;80;21588;-43
2022/11/09 17:41:10;;;;;;;56.65;30.60;;;;;;;10.82;82.71;98992.00;1789471;80;21020;-41
2022/11/09 17:43:38;;;;;;;62.62;31.62;;;;;;;10.74;83.48;98992.00;1788373;79;21485;-42
2022/11/09 17:46:11;;;;;;;69.67;32.30;;;;;;;10.75;83.08;98988.45;1789336;80;20978;-40
2022/11/09 17:48:40;;;;;;;63.28;32.48;;;;;;;10.74;83.43;98990.69;1784544;80;21000;-43
2022/11/09 17:51:07;;;;;;;76.82;34.85;;;;;;;10.74;83.10;98992.48;1788232;80;21031;-41
2022/11/09 17:53:34;;;;;;;55.67;28.77;;;;;;;10.70;83.52;98998.88;1788056;80;21082;-43
2022/11/09 17:56:01;;;;;;;57.83;30.32;;;;;;;10.63;83.72;98995.75;1788143;80;21035;-41
2022/11/09 17:58:28;;;;;;;66.00;33.28;;;;;;;10.65;83.66;98987.30;1789256;80;21039;-44
2022/11/09 18:00:54;;;;;;;61.68;31.57;;;;;;;10.67;83.48;98998.57;1789432;80;21083;-44
2022/11/09 18:03:20;;;;;;;59.73;29.92;;;;;;;10.70;83.20;98995.77;1789473;80;21032;-47
2022/11/09 18:05:46;;;;;;;58.70;30.50;;;;;;;10.67;83.37;98998.57;1789562;80;21793;-46
2022/11/09 18:08:14;;;;;;;51.05;29.50;;;;;;;10.67;83.29;98998.57;1789342;80;21482;-47
2022/11/09 18:10:43;;;;;;;61.40;30.05;;;;;;;10.68;83.28;99005.53;1789505;80;20968;-45
2022/11/09 18:13:10;;;;;;;58.95;29.72;;;;;;;10.67;83.33;99014.34;1789175;80;20984;-46
2022/11/09 18:15:37;;;;;;;59.38;31.33;;;;;;;10.66;83.22;99019.25;1789249;80;21058;-46
2022/11/09 18:18:04;;;;;;;62.13;33.48;;;;;;;10.64;83.27;99022.44;1789466;80;21476;-45
2022/11/09 18:20:30;;;;;;;54.95;31.60;;;;;;;10.63;83.32;99012.84;1789383;80;20980;-44
2022/11/09 18:22:56;;;;;;;63.65;32.42;;;;;;;10.61;83.34;99009.95;1789389;80;20968;-45
2022/11/09 18:25:22;;;;;;;56.85;31.30;;;;;;;10.61;83.35;99016.52;1789344;80;21533;-46
2022/11/09 18:27:48;;;;;;;55.33;30.23;;;;;;;10.61;83.43;99021.78;1789144;80;21437;-43
2022/11/09 18:30:16;;;;;;;55.45;29.20;;;;;;;10.62;83.31;99019.51;1789211;80;20995;-44
2022/11/09 18:32:43;;;;;;;55.23;28.45;;;;;;;10.59;83.34;99020.55;1789286;80;20957;-44
2022/11/09 18:35:09;;;;;;;59.77;29.42;;;;;;;10.54;83.59;99023.44;1789219;80;20980;-48
2022/11/09 18:37:36;;;;;;;67.20;34.88;;;;;;;10.48;83.76;99014.61;1789248;80;20988;-46
2022/11/09 18:40:04;;;;;;;67.35;36.68;;;;;;;10.48;83.64;99019.03;1789375;80;21016;-47
2022/11/09 18:42:30;;;;;;;57.15;30.55;;;;;;;10.47;83.60;99023.90;1789263;80;21480;-46
2022/11/09 18:44:56;;;;;;;56.33;29.40;;;;;;;10.47;83.59;99019.95;1789272;80;20988;-44
2022/11/09 18:47:22;;;;;;;56.63;29.18;;;;;;;10.50;83.14;99028.98;1789319;80;21525;-45
2022/11/09 18:49:48;;;;;;;51.60;29.23;;;;;;;10.47;83.27;99027.84;1789255;80;21600;-44
2022/11/09 18:52:15;;;;;;;56.08;28.60;;;;;;;10.47;83.31;99029.16;1789189;80;20981;-45
2022/11/09 18:54:40;;;;;;;54.25;29.55;;;;;;;10.46;83.28;99035.34;1789140;80;21003;-45
2022/11/09 18:57:07;;;;;;;61.65;32.23;;;;;;;10.44;83.29;99034.59;1789253;80;21461;-46
2022/11/09 18:59:36;;;;;;;67.30;33.33;;;;;;;10.42;83.34;99023.32;1789304;80;20967;-44
2022/11/09 19:02:01;;;;;;;73.65;38.60;;;;;;;10.37;83.57;99023.13;1788977;79;21011;-44
2022/11/09 19:04:27;;;;;;;70.05;34.98;;;;;;;10.35;83.52;99030.27;1788526;80;20971;-44
2022/11/09 19:06:54;;;;;;;66.28;34.65;;;;;;;10.33;83.56;99023.39;1787943;80;21047;-45
2022/11/09 19:09:28;;;;;;;55.45;29.48;;;;;;;10.30;83.82;99021.77;1789141;80;21028;-45
2022/11/09 19:11:56;;;;;;;57.58;29.80;;;;;;;10.26;83.81;99027.27;1780704;80;21482;-45
2022/11/09 19:14:22;;;;;;;55.75;28.75;;;;;;;10.22;83.94;99026.61;1742594;82;20994;-45
2022/11/09 19:16:48;;;;;;;60.38;29.30;;;;;;;10.21;83.88;99020.16;1741967;82;21045;-45
2022/11/09 19:19:14;;;;;;;59.80;31.97;;;;;;;10.19;84.17;99024.18;1742873;82;21037;-46
2022/11/09 19:21:48;;;;;;;53.47;31.40;;;;;;;10.19;83.81;99029.44;1743146;82;21033;-46
2022/11/09 19:24:18;;;;;;;61.08;34.08;;;;;;;10.16;84.16;99030.91;1744007;82;21065;-46
2022/11/09 19:26:44;;;;;;;65.55;36.68;;;;;;;10.12;84.25;99038.13;1743994;81;21009;-44
2022/11/09 19:29:12;;;;;;;60.08;32.78;;;;;;;10.12;84.16;99042.07;1743994;82;21505;-47
2022/11/09 19:31:42;;;;;;;56.60;31.50;;;;;;;10.09;84.28;99035.66;1744146;82;21002;-44
2022/11/09 19:34:15;;;;;;;64.27;33.02;;;;;;;10.09;84.23;99038.77;1744104;82;21010;-44
2022/11/09 19:36:42;;;;;;;56.53;31.20;;;;;;;10.07;84.21;99048.52;1742619;81;21037;-45
2022/11/09 19:39:09;;;;;;;58.57;31.87;;;;;;;10.05;84.25;99049.92;1754135;81;21000;-44
2022/11/09 19:41:35;;;;;;;61.10;33.13;;;;;;;10.02;84.27;99050.56;1743960;82;21467;-47
2022/11/09 19:44:02;;;;;;;64.00;31.57;;;;;;;10.02;84.17;99054.50;1743729;82;21002;-44
2022/11/09 19:46:29;;;;;;;56.48;31.60;;;;;;;9.99;84.42;99056.85;1743851;82;21001;-44
2022/11/09 19:48:56;;;;;;;;;;;;;;;9.96;84.38;99049.97;1746317;82;20994;-44
2022/11/09 19:51:24;;;;;;;67.08;35.52;;;;;;;9.88;84.78;99056.14;1743981;82;20104;-45
2022/11/09 19:53:53;;;;;;;66.42;33.55;;;;;;;9.85;84.85;99044.48;1743755;82;21049;-46
2022/11/09 19:56:20;;;;;;;62.73;32.15;;;;;;;9.81;85.17;99046.91;1743500;82;20989;-45
2022/11/09 19:58:49;;;;;;;63.40;33.58;;;;;;;9.80;84.86;99044.76;1743833;82;21475;-44
2022/11/09 20:01:15;;;;;;;60.55;33.60;;;;;;;9.82;84.96;99049.06;1743749;82;20974;-46
2022/11/09 20:03:41;;;;;;;57.78;31.90;;;;;;;9.78;85.21;99050.53;1744035;82;21005;-45
2022/11/09 20:06:08;;;;;;;58.68;31.40;;;;;;;9.76;85.28;99042.38;1743687;82;21130;-44
2022/11/09 20:08:35;;;;;;;58.90;31.57;;;;;;;9.75;85.18;99045.92;1744074;82;21526;-45
2022/11/09 20:11:06;;;;;;;;;;;;;;;9.75;85.19;99041.98;1746468;82;21044;-47
2022/11/09 20:13:37;;;;;;;60.00;30.40;;;;;;;9.72;85.39;99040.39;1743739;82;20127;-46
2022/11/09 20:16:06;;;;;;;60.35;31.42;;;;;;;9.70;85.26;99034.85;1742405;82;21032;-46
2022/11/09 20:18:37;;;;;;;54.05;31.42;;;;;;;9.68;85.37;99043.25;1744573;81;21015;-47
2022/11/09 20:21:05;;;;;;;65.52;35.33;;;;;;;9.62;86.13;99041.81;1744533;82;21539;-47
2022/11/09 20:23:32;;;;;;;60.38;34.78;;;;;;;9.61;85.77;99038.35;1744533;82;21508;-46
2022/11/09 20:26:05;;;;;;;65.17;36.73;;;;;;;9.59;85.83;99041.53;1744734;82;21520;-47
2022/11/09 20:28:31;;;;;;;66.87;32.63;;;;;;;9.58;86.04;99046.39;1744461;81;21453;-46
2022/11/09 20:30:57;;;;;;;63.80;31.60;;;;;;;9.54;86.08;99038.31;1744588;81;20996;-44
2022/11/09 20:33:23;;;;;;;64.53;32.93;;;;;;;9.53;85.89;99039.27;1744486;81;21007;-45
2022/11/09 20:35:52;;;;;;;61.20;32.25;;;;;;;9.47;86.08;99036.11;1744506;81;21011;-45
2022/11/09 20:38:18;;;;;;;59.45;31.27;;;;;;;9.46;86.15;99040.97;1744226;82;20995;-44
2022/11/09 20:41:02;;;;;;;66.02;33.08;;;;;;;9.44;86.32;99043.70;1744521;82;21008;-45
2022/11/09 20:43:28;;;;;;;64.20;32.78;;;;;;;9.43;86.36;99043.31;1744509;82;21003;-44
2022/11/09 20:45:55;;;;;;;58.02;33.40;;;;;;;9.43;86.31;99039.38;1744470;82;20995;-45
2022/11/09 20:48:21;;;;;;;65.23;32.23;;;;;;;9.43;86.02;99043.31;1744753;82;21011;-45
2022/11/09 20:50:47;;;;;;;65.65;31.73;;;;;;;9.41;86.41;99042.55;1744523;82;21047;-46
2022/11/09 20:53:14;;;;;;;63.95;31.95;;;;;;;9.35;86.77;99048.11;1744724;81;21461;-44
2022/11/09 20:55:41;;;;;;;62.50;33.17;;;;;;;9.36;86.56;99048.51;1744835;81;20998;-47
2022/11/09 20:58:12;;;;;;;61.20;33.42;;;;;;;9.33;86.58;99037.72;1744768;82;20984;-45
2022/11/09 21:00:38;;;;;;;57.15;32.78;;;;;;;9.32;86.41;99045.67;1744667;82;21049;-45
2022/11/09 21:03:05;;;;;;;64.55;33.15;;;;;;;9.30;86.61;99046.23;1744702;82;21468;-46
2022/11/09 21:05:34;;;;;;;63.45;34.55;;;;;;;9.26;86.83;99047.30;1744792;82;21007;-45
2022/11/09 21:08:00;;;;;;;67.35;35.30;;;;;;;9.23;86.80;99049.63;1744602;81;21007;-44
2022/11/09 21:10:26;;;;;;;69.53;33.40;;;;;;;9.23;86.78;99052.26;1744601;81;20976;-45
2022/11/09 21:12:55;;;;;;;65.62;34.90;;;;;;;9.22;86.79;99053.17;1744652;82;21007;-45
2022/11/09 21:15:20;;;;;;;66.45;34.73;;;;;;;9.23;86.61;99053.09;1744658;81;21007;-45
2022/11/09 21:17:46;;;;;;;65.12;33.70;;;;;;;9.21;87.05;99051.50;1751080;82;21017;-45
2022/11/09 21:20:13;;;;;;;66.47;33.18;;;;;;;9.18;86.79;99045.93;1753943;81;20993;-44
2022/11/09 21:30:40;;;;;;;67.58;32.50;;;;;;;9.18;87.04;99045.93;1753914;82;21623;-45
2022/11/09 21:33:06;;;;;;;60.95;30.62;;;;;;;9.18;87.01;99052.48;1753878;82;21048;-46
2022/11/09 21:35:32;;;;;;;58.70;31.23;;;;;;;9.19;86.68;99051.58;1753916;81;21031;-44
2022/11/09 21:37:57;;;;;;;54.75;30.82;;;;;;;9.18;86.98;99055.59;1753903;81;21032;-45
2022/11/09 21:40:23;;;;;;;63.30;31.37;;;;;;;9.18;87.03;99054.27;1753892;81;20984;-46
2022/11/09 21:42:50;;;;;;;65.67;32.23;;;;;;;9.17;87.04;99048.19;1753951;81;20992;-45
2022/11/09 21:45:16;;;;;;;63.28;31.07;;;;;;;9.19;86.92;99043.70;1753925;82;20973;-44
2022/11/09 21:47:41;;;;;;;61.37;31.85;;;;;;;9.15;86.97;99042.19;1753950;81;21004;-45
2022/11/09 21:50:09;;;;;;;54.55;30.62;;;;;;;9.10;87.33;99038.11;1755538;80;20963;-47
2022/11/09 21:52:34;;;;;;;59.77;31.33;;;;;;;9.12;87.12;99033.63;1761444;81;21015;-45
2022/11/09 21:55:00;;;;;;;56.35;32.45;;;;;;;9.11;87.26;99036.69;1761243;81;20983;-45
2022/11/09 21:57:26;;;;;;;58.55;31.73;;;;;;;9.10;87.41;99035.02;1761255;81;21026;-46
2022/11/09 21:59:52;;;;;;;60.10;31.87;;;;;;;9.12;86.80;99039.71;1761328;81;20963;-48
2022/11/09 22:02:17;;;;;;;59.73;30.97;;;;;;;9.10;87.18;99038.95;1761159;80;21469;-46
2022/11/09 22:04:43;;;;;;;57.08;29.98;;;;;;;9.09;87.24;99050.36;1761318;81;21463;-44
2022/11/09 22:07:09;;;;;;;58.65;31.68;;;;;;;9.10;87.05;99052.06;1761289;81;20991;-45
2022/11/09 22:09:35;;;;;;;54.15;30.85;;;;;;;9.09;86.96;99043.80;1761228;81;20987;-44
2022/11/09 22:17:29;;;;;;;61.08;29.23;;;;;;;9.06;87.71;99041.36;1761088;81;20991;-46
2022/11/09 22:22:39;;;;;;;58.28;28.77;;;;;;;9.05;87.80;99035.72;1761237;81;21019;-48
2022/11/09 22:25:06;;;;;;;56.48;29.27;;;;;;;9.05;87.70;99054.08;1761142;81;20995;-45
2022/11/09 22:27:32;;;;;;;55.33;29.70;;;;;;;9.10;87.37;99052.06;1761322;80;20976;-45
2022/11/09 22:29:59;;;;;;;52.60;29.12;;;;;;;9.11;87.51;99048.97;1761198;81;21036;-44
2022/11/09 22:32:25;;;;;;;56.35;27.52;;;;;;;9.09;87.31;99056.08;1761309;81;21047;-47
2022/11/09 22:34:50;;;;;;;49.58;27.13;;;;;;;9.07;87.46;99060.09;1761186;81;20987;-44
2022/11/09 22:37:16;;;;;;;45.23;25.70;;;;;;;9.08;87.45;99069.67;1761264;80;20995;-45
2022/11/09 22:39:42;;;;;;;52.08;27.75;;;;;;;9.06;87.58;99072.84;1760485;81;21043;-46
2022/11/09 22:42:08;;;;;;;46.63;26.15;;;;;;;9.07;87.38;99069.27;1761367;81;21143;-46
2022/11/09 22:44:34;;;;;;;50.95;26.62;;;;;;;9.07;87.39;99072.37;1761212;81;21461;-43
2022/11/09 22:47:00;;;;;;;43.52;26.48;;;;;;;9.05;87.49;99067.67;1761260;81;21002;-44
2022/11/09 22:49:26;;;;;;;48.63;26.65;;;;;;;9.05;87.56;99068.50;1761321;81;21459;-44
2022/11/09 22:51:52;;;;;;;52.45;26.30;;;;;;;9.08;87.27;99072.29;1761217;81;20963;-44
2022/11/09 22:54:21;;;;;;;54.77;26.65;;;;;;;9.07;87.45;99077.14;1761109;81;20987;-44
2022/11/09 22:56:46;;;;;;;49.05;26.12;;;;;;;9.05;87.52;99068.50;1761178;81;20990;-46
2022/11/09 22:59:12;;;;;;;48.25;25.65;;;;;;;9.09;87.28;99067.41;1761254;81;21528;-44
2022/11/09 23:01:38;;;;;;;49.55;27.62;;;;;;;9.06;87.53;99070.66;1761320;81;20994;-45
2022/11/09 23:04:03;;;;;;;51.40;27.42;;;;;;;9.08;87.43;99077.98;1761305;81;21457;-45
2022/11/09 23:06:31;;;;;;;46.35;24.67;;;;;;;9.09;87.32;99070.03;1761187;81;20983;-43
2022/11/09 23:08:57;;;;;;;;;;;;;;;9.04;87.48;99069.45;1763766;81;20986;-45
2022/11/09 23:11:24;;;;;;;45.63;26.33;;;;;;;9.03;87.35;99076.92;1761179;81;20119;-43
2022/11/09 23:13:54;;;;;;;54.83;28.27;;;;;;;9.06;87.20;99083.33;1761294;81;21018;-44
2022/11/09 23:16:21;;;;;;;50.43;26.87;;;;;;;9.05;87.51;99084.25;1761158;81;20967;-44
2022/11/09 23:18:54;;;;;;;51.15;27.50;;;;;;;9.05;87.50;99086.03;1748442;81;21556;-46
2022/11/09 23:21:24;;;;;;;51.00;25.45;;;;;;;9.06;87.22;99089.89;1746710;82;20995;-45
2022/11/09 23:23:52;;;;;;;49.00;25.32;;;;;;;9.02;87.30;99089.64;1746897;81;21019;-45
2022/11/09 23:26:19;;;;;;;49.50;26.25;;;;;;;8.98;87.52;99098.61;1746794;81;20983;-46
2022/11/09 23:28:45;;;;;;;49.42;26.48;;;;;;;8.95;87.57;99090.88;1746899;81;20971;-44
2022/11/09 23:31:15;;;;;;;49.05;26.05;;;;;;;8.94;87.58;99088.73;1746762;82;21016;-43
2022/11/09 23:33:41;;;;;;;47.67;25.75;;;;;;;8.93;87.68;99086.19;1746814;81;20979;-45
2022/11/09 23:36:08;;;;;;;47.00;26.40;;;;;;;8.91;87.88;99089.36;1746694;81;21001;-43
2022/11/09 23:38:35;;;;;;;;;;;;;;;8.93;87.75;99090.12;1749358;81;21476;-48
2022/11/09 23:41:08;;;;;;;49.13;26.52;;;;;;;8.91;87.57;99088.89;1746893;82;20405;-45
2022/11/09 23:43:35;;;;;;;46.55;26.45;;;;;;;8.91;87.71;99094.60;1746490;81;20987;-45
2022/11/09 23:46:05;;;;;;;51.83;26.33;;;;;;;8.90;87.77;99087.20;1746846;82;21485;-45
2022/11/09 23:48:31;;;;;;;52.03;26.15;;;;;;;8.93;87.55;99092.30;1746608;81;20964;-44
2022/11/09 23:50:59;;;;;;;49.60;26.48;;;;;;;8.92;87.76;99085.82;1746814;82;21506;-45
2022/11/09 23:53:29;;;;;;;51.95;27.52;;;;;;;8.94;87.66;99091.83;1746810;81;20979;-46
2022/11/09 23:56:00;;;;;;;47.65;25.92;;;;;;;8.96;87.74;99100.47;1746726;82;20991;-43
2022/11/09 23:58:26;;;;;;;54.30;26.97;;;;;;;8.94;87.87;99099.23;1746751;81;20991;-43
